sensor_id;sensor_type;location;lat;lon;timestamp;P1;durP1;ratioP1;P2;durP2;ratioP2
13816;SDS011;6979;52.116;5.286;2023-04-08T00:00:57;14.80;;;13.40;;
13816;SDS011;6979;52.116;5.286;2023-04-08T00:03:25;13.43;;;12.13;;
13816;SDS011;6979;52.116;5.286;2023-04-08T00:05:53;13.50;;;12.20;;
13816;SDS011;6979;52.116;5.286;2023-04-08T00:08:20;13.77;;;12.40;;
13816;SDS011;6979;52.116;5.286;2023-04-08T00:10:47;13.70;;;12.33;;
13816;SDS011;6979;52.116;5.286;2023-04-08T00:13:14;14.70;;;13.23;;
13816;SDS011;6979;52.116;5.286;2023-04-08T00:15:41;13.23;;;11.87;;
13816;SDS011;6979;52.116;5.286;2023-04-08T00:18:08;14.37;;;12.90;;
13816;SDS011;6979;52.116;5.286;2023-04-08T00:20:36;14.83;;;13.43;;
13816;SDS011;6979;52.116;5.286;2023-04-08T00:23:03;15.33;;;12.97;;
13816;SDS011;6979;52.116;5.286;2023-04-08T00:25:30;14.93;;;13.43;;
13816;SDS011;6979;52.116;5.286;2023-04-08T00:27:57;13.77;;;12.57;;
13816;SDS011;6979;52.116;5.286;2023-04-08T00:30:23;14.80;;;13.30;;
13816;SDS011;6979;52.116;5.286;2023-04-08T00:32:51;13.27;;;11.97;;
13816;SDS011;6979;52.116;5.286;2023-04-08T00:35:18;13.60;;;12.30;;
13816;SDS011;6979;52.116;5.286;2023-04-08T00:37:46;12.37;;;11.23;;
13816;SDS011;6979;52.116;5.286;2023-04-08T00:40:14;12.77;;;11.40;;
13816;SDS011;6979;52.116;5.286;2023-04-08T00:42:41;34.50;;;12.90;;
13816;SDS011;6979;52.116;5.286;2023-04-08T00:45:08;13.87;;;11.33;;
13816;SDS011;6979;52.116;5.286;2023-04-08T00:47:36;26.97;;;12.77;;
13816;SDS011;6979;52.116;5.286;2023-04-08T00:50:03;27.73;;;12.10;;
13816;SDS011;6979;52.116;5.286;2023-04-08T00:52:32;18.43;;;12.97;;
13816;SDS011;6979;52.116;5.286;2023-04-08T00:55:00;13.27;;;12.03;;
13816;SDS011;6979;52.116;5.286;2023-04-08T00:57:27;14.33;;;12.60;;
13816;SDS011;6979;52.116;5.286;2023-04-08T00:59:54;14.80;;;12.07;;
13816;SDS011;6979;52.116;5.286;2023-04-08T01:02:26;24.63;;;13.33;;
13816;SDS011;6979;52.116;5.286;2023-04-08T01:05:01;14.00;;;11.17;;
13816;SDS011;6979;52.116;5.286;2023-04-08T01:07:32;19.70;;;11.97;;
13816;SDS011;6979;52.116;5.286;2023-04-08T01:10:05;14.03;;;10.70;;
13816;SDS011;6979;52.116;5.286;2023-04-08T01:12:39;22.53;;;11.70;;
13816;SDS011;6979;52.116;5.286;2023-04-08T01:15:10;13.03;;;11.40;;
13816;SDS011;6979;52.116;5.286;2023-04-08T01:17:37;11.63;;;10.43;;
13816;SDS011;6979;52.116;5.286;2023-04-08T01:20:07;18.40;;;11.33;;
13816;SDS011;6979;52.116;5.286;2023-04-08T01:22:38;14.23;;;11.60;;
13816;SDS011;6979;52.116;5.286;2023-04-08T01:25:21;13.70;;;10.77;;
13816;SDS011;6979;52.116;5.286;2023-04-08T01:27:52;21.73;;;12.00;;
13816;SDS011;6979;52.116;5.286;2023-04-08T01:30:22;12.80;;;11.50;;
13816;SDS011;6979;52.116;5.286;2023-04-08T01:32:51;13.57;;;11.30;;
13816;SDS011;6979;52.116;5.286;2023-04-08T01:35:20;14.23;;;11.10;;
13816;SDS011;6979;52.116;5.286;2023-04-08T01:37:49;13.97;;;12.57;;
13816;SDS011;6979;52.116;5.286;2023-04-08T01:40:16;22.77;;;13.27;;
13816;SDS011;6979;52.116;5.286;2023-04-08T01:42:45;15.87;;;12.57;;
13816;SDS011;6979;52.116;5.286;2023-04-08T01:45:15;20.50;;;12.23;;
13816;SDS011;6979;52.116;5.286;2023-04-08T01:47:43;13.60;;;12.13;;
13816;SDS011;6979;52.116;5.286;2023-04-08T01:50:12;13.47;;;11.23;;
13816;SDS011;6979;52.116;5.286;2023-04-08T01:52:40;12.07;;;10.83;;
13816;SDS011;6979;52.116;5.286;2023-04-08T01:55:11;14.57;;;11.23;;
13816;SDS011;6979;52.116;5.286;2023-04-08T01:57:38;16.73;;;11.50;;
13816;SDS011;6979;52.116;5.286;2023-04-08T02:00:07;12.70;;;11.13;;
13816;SDS011;6979;52.116;5.286;2023-04-08T02:02:47;11.77;;;10.17;;
13816;SDS011;6979;52.116;5.286;2023-04-08T02:05:17;11.37;;;10.17;;
13816;SDS011;6979;52.116;5.286;2023-04-08T02:07:45;11.20;;;10.10;;
13816;SDS011;6979;52.116;5.286;2023-04-08T02:10:13;10.07;;;9.13;;
13816;SDS011;6979;52.116;5.286;2023-04-08T02:12:40;10.83;;;9.20;;
13816;SDS011;6979;52.116;5.286;2023-04-08T02:15:08;13.40;;;9.37;;
13816;SDS011;6979;52.116;5.286;2023-04-08T02:17:38;10.90;;;9.77;;
13816;SDS011;6979;52.116;5.286;2023-04-08T02:20:14;10.77;;;9.37;;
13816;SDS011;6979;52.116;5.286;2023-04-08T02:22:46;10.03;;;9.03;;
13816;SDS011;6979;52.116;5.286;2023-04-08T02:25:15;10.93;;;9.63;;
13816;SDS011;6979;52.116;5.286;2023-04-08T02:27:46;11.90;;;10.33;;
13816;SDS011;6979;52.116;5.286;2023-04-08T02:30:14;9.97;;;9.10;;
13816;SDS011;6979;52.116;5.286;2023-04-08T02:32:42;10.50;;;9.40;;
13816;SDS011;6979;52.116;5.286;2023-04-08T02:35:10;10.30;;;9.20;;
13816;SDS011;6979;52.116;5.286;2023-04-08T02:37:39;10.47;;;9.27;;
13816;SDS011;6979;52.116;5.286;2023-04-08T02:40:21;11.67;;;9.53;;
13816;SDS011;6979;52.116;5.286;2023-04-08T02:42:49;11.37;;;9.53;;
13816;SDS011;6979;52.116;5.286;2023-04-08T02:45:16;11.40;;;9.30;;
13816;SDS011;6979;52.116;5.286;2023-04-08T02:47:43;10.67;;;9.57;;
13816;SDS011;6979;52.116;5.286;2023-04-08T02:50:10;12.37;;;9.80;;
13816;SDS011;6979;52.116;5.286;2023-04-08T02:52:40;10.50;;;8.97;;
13816;SDS011;6979;52.116;5.286;2023-04-08T02:55:09;11.17;;;9.53;;
13816;SDS011;6979;52.116;5.286;2023-04-08T02:57:36;10.90;;;9.47;;
13816;SDS011;6979;52.116;5.286;2023-04-08T03:00:05;9.40;;;8.60;;
13816;SDS011;6979;52.116;5.286;2023-04-08T03:02:32;10.37;;;9.37;;
13816;SDS011;6979;52.116;5.286;2023-04-08T03:04:59;11.47;;;9.63;;
13816;SDS011;6979;52.116;5.286;2023-04-08T03:07:27;16.63;;;10.07;;
13816;SDS011;6979;52.116;5.286;2023-04-08T03:09:55;14.97;;;9.80;;
13816;SDS011;6979;52.116;5.286;2023-04-08T03:12:22;11.50;;;10.47;;
13816;SDS011;6979;52.116;5.286;2023-04-08T03:14:52;11.43;;;10.33;;
13816;SDS011;6979;52.116;5.286;2023-04-08T03:17:19;12.97;;;10.27;;
13816;SDS011;6979;52.116;5.286;2023-04-08T03:19:46;10.93;;;9.87;;
13816;SDS011;6979;52.116;5.286;2023-04-08T03:22:13;10.77;;;9.63;;
13816;SDS011;6979;52.116;5.286;2023-04-08T03:24:40;10.43;;;9.50;;
13816;SDS011;6979;52.116;5.286;2023-04-08T03:27:08;11.43;;;10.30;;
13816;SDS011;6979;52.116;5.286;2023-04-08T03:29:38;10.47;;;9.47;;
13816;SDS011;6979;52.116;5.286;2023-04-08T03:32:05;10.97;;;9.83;;
13816;SDS011;6979;52.116;5.286;2023-04-08T03:34:32;14.90;;;10.23;;
13816;SDS011;6979;52.116;5.286;2023-04-08T03:36:59;10.17;;;9.17;;
13816;SDS011;6979;52.116;5.286;2023-04-08T03:39:26;10.10;;;9.10;;
13816;SDS011;6979;52.116;5.286;2023-04-08T03:41:53;10.07;;;9.07;;
13816;SDS011;6979;52.116;5.286;2023-04-08T03:44:21;11.33;;;10.33;;
13816;SDS011;6979;52.116;5.286;2023-04-08T03:46:52;10.27;;;9.33;;
13816;SDS011;6979;52.116;5.286;2023-04-08T03:49:18;23.00;;;10.80;;
13816;SDS011;6979;52.116;5.286;2023-04-08T03:51:46;12.43;;;11.30;;
13816;SDS011;6979;52.116;5.286;2023-04-08T03:54:13;20.90;;;10.37;;
13816;SDS011;6979;52.116;5.286;2023-04-08T03:56:42;11.30;;;10.20;;
13816;SDS011;6979;52.116;5.286;2023-04-08T03:59:09;11.60;;;10.13;;
13816;SDS011;6979;52.116;5.286;2023-04-08T04:01:40;11.43;;;10.43;;
13816;SDS011;6979;52.116;5.286;2023-04-08T04:04:07;12.80;;;10.83;;
13816;SDS011;6979;52.116;5.286;2023-04-08T04:06:34;14.13;;;11.43;;
13816;SDS011;6979;52.116;5.286;2023-04-08T04:09:02;15.43;;;12.67;;
13816;SDS011;6979;52.116;5.286;2023-04-08T04:11:28;12.33;;;11.23;;
13816;SDS011;6979;52.116;5.286;2023-04-08T04:13:55;12.83;;;11.73;;
13816;SDS011;6979;52.116;5.286;2023-04-08T04:16:26;15.80;;;11.17;;
13816;SDS011;6979;52.116;5.286;2023-04-08T04:18:54;12.73;;;11.33;;
13816;SDS011;6979;52.116;5.286;2023-04-08T04:21:24;13.13;;;11.83;;
13816;SDS011;6979;52.116;5.286;2023-04-08T04:23:51;13.60;;;12.40;;
13816;SDS011;6979;52.116;5.286;2023-04-08T04:26:18;14.00;;;12.50;;
13816;SDS011;6979;52.116;5.286;2023-04-08T04:28:45;14.40;;;13.10;;
13816;SDS011;6979;52.116;5.286;2023-04-08T04:31:16;15.77;;;12.73;;
13816;SDS011;6979;52.116;5.286;2023-04-08T04:33:44;14.13;;;12.90;;
13816;SDS011;6979;52.116;5.286;2023-04-08T04:36:13;16.77;;;13.93;;
13816;SDS011;6979;52.116;5.286;2023-04-08T04:38:42;15.83;;;14.33;;
13816;SDS011;6979;52.116;5.286;2023-04-08T04:41:17;15.83;;;13.83;;
13816;SDS011;6979;52.116;5.286;2023-04-08T04:43:43;16.93;;;15.27;;
13816;SDS011;6979;52.116;5.286;2023-04-08T04:46:11;16.07;;;14.57;;
13816;SDS011;6979;52.116;5.286;2023-04-08T04:48:37;16.47;;;14.87;;
13816;SDS011;6979;52.116;5.286;2023-04-08T04:51:04;15.57;;;13.97;;
13816;SDS011;6979;52.116;5.286;2023-04-08T04:53:33;15.10;;;13.67;;
13816;SDS011;6979;52.116;5.286;2023-04-08T04:55:59;17.67;;;14.20;;
13816;SDS011;6979;52.116;5.286;2023-04-08T04:58:27;18.83;;;14.37;;
13816;SDS011;6979;52.116;5.286;2023-04-08T05:00:54;16.27;;;14.67;;
13816;SDS011;6979;52.116;5.286;2023-04-08T05:05:54;15.20;;;13.80;;
13816;SDS011;6979;52.116;5.286;2023-04-08T05:08:21;14.90;;;13.40;;
13816;SDS011;6979;52.116;5.286;2023-04-08T05:10:51;16.50;;;12.80;;
13816;SDS011;6979;52.116;5.286;2023-04-08T05:19:26;13.13;;;11.67;;
13816;SDS011;6979;52.116;5.286;2023-04-08T05:21:53;15.37;;;11.97;;
13816;SDS011;6979;52.116;5.286;2023-04-08T05:30:11;12.60;;;11.23;;
13816;SDS011;6979;52.116;5.286;2023-04-08T05:32:39;12.03;;;10.93;;
13816;SDS011;6979;52.116;5.286;2023-04-08T05:35:06;12.20;;;11.03;;
13816;SDS011;6979;52.116;5.286;2023-04-08T05:37:37;13.27;;;12.10;;
13816;SDS011;6979;52.116;5.286;2023-04-08T05:40:11;13.10;;;11.93;;
13816;SDS011;6979;52.116;5.286;2023-04-08T05:42:38;13.07;;;11.97;;
13816;SDS011;6979;52.116;5.286;2023-04-08T05:45:06;14.90;;;13.30;;
13816;SDS011;6979;52.116;5.286;2023-04-08T05:47:36;13.17;;;11.87;;
13816;SDS011;6979;52.116;5.286;2023-04-08T05:50:04;13.73;;;12.43;;
13816;SDS011;6979;52.116;5.286;2023-04-08T05:52:31;12.97;;;11.77;;
13816;SDS011;6979;52.116;5.286;2023-04-08T05:55:01;12.80;;;11.70;;
13816;SDS011;6979;52.116;5.286;2023-04-08T05:57:30;13.90;;;12.70;;
13816;SDS011;6979;52.116;5.286;2023-04-08T05:59:57;13.77;;;12.63;;
13816;SDS011;6979;52.116;5.286;2023-04-08T06:02:27;14.17;;;12.97;;
13816;SDS011;6979;52.116;5.286;2023-04-08T06:04:55;14.13;;;12.83;;
13816;SDS011;6979;52.116;5.286;2023-04-08T06:07:24;15.93;;;14.47;;
13816;SDS011;6979;52.116;5.286;2023-04-08T06:09:52;14.07;;;12.77;;
13816;SDS011;6979;52.116;5.286;2023-04-08T06:12:21;15.43;;;14.13;;
13816;SDS011;6979;52.116;5.286;2023-04-08T06:14:52;14.37;;;13.03;;
13816;SDS011;6979;52.116;5.286;2023-04-08T06:17:20;14.83;;;13.53;;
13816;SDS011;6979;52.116;5.286;2023-04-08T06:19:47;14.37;;;13.07;;
13816;SDS011;6979;52.116;5.286;2023-04-08T06:22:16;14.20;;;12.97;;
13816;SDS011;6979;52.116;5.286;2023-04-08T06:24:43;14.50;;;13.23;;
13816;SDS011;6979;52.116;5.286;2023-04-08T06:27:12;14.63;;;13.43;;
13816;SDS011;6979;52.116;5.286;2023-04-08T06:29:40;14.47;;;13.17;;
13816;SDS011;6979;52.116;5.286;2023-04-08T06:32:08;15.27;;;13.97;;
13816;SDS011;6979;52.116;5.286;2023-04-08T06:34:35;12.97;;;11.83;;
13816;SDS011;6979;52.116;5.286;2023-04-08T06:37:02;14.63;;;13.40;;
13816;SDS011;6979;52.116;5.286;2023-04-08T06:39:31;13.10;;;11.97;;
13816;SDS011;6979;52.116;5.286;2023-04-08T06:41:58;13.07;;;11.97;;
13816;SDS011;6979;52.116;5.286;2023-04-08T06:44:35;13.17;;;12.10;;
13816;SDS011;6979;52.116;5.286;2023-04-08T06:47:02;13.90;;;12.77;;
13816;SDS011;6979;52.116;5.286;2023-04-08T06:49:29;13.53;;;12.37;;
13816;SDS011;6979;52.116;5.286;2023-04-08T06:51:56;12.93;;;11.83;;
13816;SDS011;6979;52.116;5.286;2023-04-08T06:54:23;13.87;;;12.67;;
13816;SDS011;6979;52.116;5.286;2023-04-08T06:56:51;13.07;;;11.97;;
13816;SDS011;6979;52.116;5.286;2023-04-08T06:59:18;13.53;;;12.43;;
13816;SDS011;6979;52.116;5.286;2023-04-08T07:01:45;13.37;;;12.27;;
13816;SDS011;6979;52.116;5.286;2023-04-08T07:04:12;13.20;;;12.10;;
13816;SDS011;6979;52.116;5.286;2023-04-08T07:06:39;13.23;;;12.07;;
13816;SDS011;6979;52.116;5.286;2023-04-08T07:09:06;12.73;;;11.63;;
13816;SDS011;6979;52.116;5.286;2023-04-08T07:11:33;12.47;;;11.40;;
13816;SDS011;6979;52.116;5.286;2023-04-08T07:14:01;12.50;;;11.43;;
13816;SDS011;6979;52.116;5.286;2023-04-08T07:16:28;11.57;;;10.13;;
13816;SDS011;6979;52.116;5.286;2023-04-08T07:18:55;11.80;;;10.77;;
13816;SDS011;6979;52.116;5.286;2023-04-08T07:21:23;12.40;;;11.40;;
13816;SDS011;6979;52.116;5.286;2023-04-08T07:23:49;10.77;;;9.87;;
13816;SDS011;6979;52.116;5.286;2023-04-08T07:26:16;12.50;;;11.40;;
13816;SDS011;6979;52.116;5.286;2023-04-08T07:28:43;11.43;;;10.47;;
13816;SDS011;6979;52.116;5.286;2023-04-08T07:31:13;12.67;;;11.67;;
13816;SDS011;6979;52.116;5.286;2023-04-08T07:33:41;11.77;;;10.77;;
13816;SDS011;6979;52.116;5.286;2023-04-08T07:36:08;11.10;;;10.20;;
13816;SDS011;6979;52.116;5.286;2023-04-08T07:38:36;12.13;;;11.13;;
13816;SDS011;6979;52.116;5.286;2023-04-08T07:41:03;12.10;;;11.13;;
13816;SDS011;6979;52.116;5.286;2023-04-08T07:43:31;12.50;;;11.50;;
13816;SDS011;6979;52.116;5.286;2023-04-08T07:45:59;11.87;;;10.87;;
13816;SDS011;6979;52.116;5.286;2023-04-08T07:48:29;12.27;;;11.33;;
13816;SDS011;6979;52.116;5.286;2023-04-08T07:50:56;12.47;;;11.47;;
13816;SDS011;6979;52.116;5.286;2023-04-08T07:53:23;12.20;;;11.20;;
13816;SDS011;6979;52.116;5.286;2023-04-08T07:55:50;11.80;;;10.90;;
13816;SDS011;6979;52.116;5.286;2023-04-08T07:58:17;11.93;;;11.03;;
13816;SDS011;6979;52.116;5.286;2023-04-08T08:00:44;11.83;;;10.90;;
13816;SDS011;6979;52.116;5.286;2023-04-08T08:03:11;12.40;;;11.17;;
13816;SDS011;6979;52.116;5.286;2023-04-08T08:05:40;12.20;;;11.30;;
13816;SDS011;6979;52.116;5.286;2023-04-08T08:08:08;12.20;;;11.20;;
13816;SDS011;6979;52.116;5.286;2023-04-08T08:10:37;12.77;;;11.67;;
13816;SDS011;6979;52.116;5.286;2023-04-08T08:13:04;13.13;;;12.03;;
13816;SDS011;6979;52.116;5.286;2023-04-08T08:15:33;11.73;;;10.83;;
13816;SDS011;6979;52.116;5.286;2023-04-08T08:18:00;12.50;;;11.50;;
13816;SDS011;6979;52.116;5.286;2023-04-08T08:20:27;12.50;;;11.50;;
13816;SDS011;6979;52.116;5.286;2023-04-08T08:22:56;12.03;;;11.13;;
13816;SDS011;6979;52.116;5.286;2023-04-08T08:25:23;11.53;;;10.63;;
13816;SDS011;6979;52.116;5.286;2023-04-08T08:27:50;12.93;;;11.83;;
13816;SDS011;6979;52.116;5.286;2023-04-08T08:30:16;12.63;;;11.63;;
13816;SDS011;6979;52.116;5.286;2023-04-08T08:32:45;12.57;;;11.47;;
13816;SDS011;6979;52.116;5.286;2023-04-08T08:35:13;12.50;;;11.47;;
13816;SDS011;6979;52.116;5.286;2023-04-08T08:37:40;13.67;;;12.57;;
13816;SDS011;6979;52.116;5.286;2023-04-08T08:40:08;12.23;;;11.23;;
13816;SDS011;6979;52.116;5.286;2023-04-08T08:42:36;12.17;;;11.17;;
13816;SDS011;6979;52.116;5.286;2023-04-08T08:45:04;12.40;;;11.50;;
13816;SDS011;6979;52.116;5.286;2023-04-08T08:47:33;12.33;;;11.43;;
13816;SDS011;6979;52.116;5.286;2023-04-08T08:50:00;12.70;;;11.60;;
13816;SDS011;6979;52.116;5.286;2023-04-08T08:52:28;11.97;;;10.87;;
13816;SDS011;6979;52.116;5.286;2023-04-08T08:54:58;12.23;;;11.13;;
13816;SDS011;6979;52.116;5.286;2023-04-08T08:57:26;12.23;;;11.23;;
13816;SDS011;6979;52.116;5.286;2023-04-08T08:59:54;10.87;;;10.07;;
13816;SDS011;6979;52.116;5.286;2023-04-08T09:02:24;11.93;;;11.07;;
13816;SDS011;6979;52.116;5.286;2023-04-08T09:04:56;12.73;;;11.73;;
13816;SDS011;6979;52.116;5.286;2023-04-08T09:07:24;11.70;;;10.73;;
13816;SDS011;6979;52.116;5.286;2023-04-08T09:09:52;12.03;;;11.03;;
13816;SDS011;6979;52.116;5.286;2023-04-08T09:12:21;12.00;;;11.00;;
13816;SDS011;6979;52.116;5.286;2023-04-08T09:14:50;12.53;;;11.53;;
13816;SDS011;6979;52.116;5.286;2023-04-08T09:17:31;12.50;;;11.50;;
13816;SDS011;6979;52.116;5.286;2023-04-08T09:20:03;11.03;;;10.20;;
13816;SDS011;6979;52.116;5.286;2023-04-08T09:22:47;11.33;;;10.43;;
13816;SDS011;6979;52.116;5.286;2023-04-08T09:25:24;12.17;;;11.17;;
13816;SDS011;6979;52.116;5.286;2023-04-08T09:27:51;10.43;;;9.63;;
13816;SDS011;6979;52.116;5.286;2023-04-08T09:30:21;10.30;;;9.50;;
13816;SDS011;6979;52.116;5.286;2023-04-08T09:32:49;11.47;;;10.60;;
13816;SDS011;6979;52.116;5.286;2023-04-08T09:35:17;10.67;;;9.97;;
13816;SDS011;6979;52.116;5.286;2023-04-08T09:37:45;9.73;;;9.03;;
13816;SDS011;6979;52.116;5.286;2023-04-08T09:40:12;10.67;;;9.87;;
13816;SDS011;6979;52.116;5.286;2023-04-08T09:42:43;9.93;;;9.23;;
13816;SDS011;6979;52.116;5.286;2023-04-08T09:45:12;9.13;;;8.53;;
13816;SDS011;6979;52.116;5.286;2023-04-08T09:47:43;9.37;;;8.67;;
13816;SDS011;6979;52.116;5.286;2023-04-08T09:50:21;9.70;;;9.00;;
13816;SDS011;6979;52.116;5.286;2023-04-08T09:52:52;9.83;;;8.97;;
13816;SDS011;6979;52.116;5.286;2023-04-08T09:55:29;11.60;;;10.80;;
13816;SDS011;6979;52.116;5.286;2023-04-08T09:57:58;11.47;;;10.57;;
13816;SDS011;6979;52.116;5.286;2023-04-08T10:00:29;11.87;;;10.87;;
13816;SDS011;6979;52.116;5.286;2023-04-08T10:03:04;9.97;;;9.07;;
13816;SDS011;6979;52.116;5.286;2023-04-08T10:05:36;10.63;;;9.73;;
13816;SDS011;6979;52.116;5.286;2023-04-08T10:08:04;9.07;;;8.47;;
13816;SDS011;6979;52.116;5.286;2023-04-08T10:10:37;9.03;;;8.33;;
13816;SDS011;6979;52.116;5.286;2023-04-08T10:13:07;9.60;;;8.83;;
13816;SDS011;6979;52.116;5.286;2023-04-08T10:15:35;9.43;;;8.73;;
13816;SDS011;6979;52.116;5.286;2023-04-08T10:18:30;9.73;;;8.90;;
13816;SDS011;6979;52.116;5.286;2023-04-08T10:20:58;10.13;;;9.13;;
13816;SDS011;6979;52.116;5.286;2023-04-08T10:26:29;11.47;;;10.47;;
13816;SDS011;6979;52.116;5.286;2023-04-08T10:31:58;8.60;;;7.90;;
13816;SDS011;6979;52.116;5.286;2023-04-08T10:34:27;7.43;;;6.83;;
13816;SDS011;6979;52.116;5.286;2023-04-08T10:36:55;7.70;;;7.00;;
13816;SDS011;6979;52.116;5.286;2023-04-08T10:39:26;8.50;;;7.80;;
13816;SDS011;6979;52.116;5.286;2023-04-08T10:41:52;7.50;;;6.90;;
13816;SDS011;6979;52.116;5.286;2023-04-08T10:44:21;7.77;;;7.27;;
13816;SDS011;6979;52.116;5.286;2023-04-08T10:46:51;7.60;;;7.00;;
13816;SDS011;6979;52.116;5.286;2023-04-08T10:49:18;8.83;;;8.13;;
13816;SDS011;6979;52.116;5.286;2023-04-08T10:51:47;9.03;;;8.13;;
13816;SDS011;6979;52.116;5.286;2023-04-08T10:54:15;7.30;;;6.67;;
13816;SDS011;6979;52.116;5.286;2023-04-08T10:56:43;6.97;;;6.47;;
13816;SDS011;6979;52.116;5.286;2023-04-08T10:59:10;6.43;;;5.93;;
13816;SDS011;6979;52.116;5.286;2023-04-08T11:01:40;7.33;;;6.00;;
13816;SDS011;6979;52.116;5.286;2023-04-08T11:04:11;6.80;;;6.30;;
13816;SDS011;6979;52.116;5.286;2023-04-08T11:06:40;6.07;;;5.67;;
13816;SDS011;6979;52.116;5.286;2023-04-08T11:09:09;6.10;;;5.70;;
13816;SDS011;6979;52.116;5.286;2023-04-08T11:11:36;5.83;;;5.53;;
13816;SDS011;6979;52.116;5.286;2023-04-08T11:14:06;5.60;;;5.20;;
13816;SDS011;6979;52.116;5.286;2023-04-08T11:16:33;6.33;;;5.93;;
13816;SDS011;6979;52.116;5.286;2023-04-08T11:19:02;6.10;;;5.70;;
13816;SDS011;6979;52.116;5.286;2023-04-08T11:21:30;5.93;;;5.63;;
13816;SDS011;6979;52.116;5.286;2023-04-08T11:23:57;5.87;;;5.17;;
13816;SDS011;6979;52.116;5.286;2023-04-08T11:26:25;5.77;;;5.37;;
13816;SDS011;6979;52.116;5.286;2023-04-08T11:28:55;6.33;;;5.93;;
13816;SDS011;6979;52.116;5.286;2023-04-08T11:31:22;7.10;;;6.60;;
13816;SDS011;6979;52.116;5.286;2023-04-08T11:33:51;6.37;;;5.97;;
13816;SDS011;6979;52.116;5.286;2023-04-08T11:36:23;6.03;;;5.53;;
13816;SDS011;6979;52.116;5.286;2023-04-08T11:38:52;6.57;;;6.07;;
13816;SDS011;6979;52.116;5.286;2023-04-08T11:41:20;6.60;;;6.00;;
13816;SDS011;6979;52.116;5.286;2023-04-08T11:43:51;7.77;;;7.07;;
13816;SDS011;6979;52.116;5.286;2023-04-08T11:46:19;7.00;;;6.30;;
13816;SDS011;6979;52.116;5.286;2023-04-08T11:48:58;6.57;;;6.07;;
13816;SDS011;6979;52.116;5.286;2023-04-08T11:51:26;6.83;;;6.23;;
13816;SDS011;6979;52.116;5.286;2023-04-08T11:53:56;6.77;;;6.27;;
13816;SDS011;6979;52.116;5.286;2023-04-08T11:56:23;6.77;;;6.17;;
13816;SDS011;6979;52.116;5.286;2023-04-08T11:58:52;6.60;;;6.13;;
13816;SDS011;6979;52.116;5.286;2023-04-08T12:01:18;6.73;;;6.23;;
13816;SDS011;6979;52.116;5.286;2023-04-08T12:03:55;6.70;;;6.20;;
13816;SDS011;6979;52.116;5.286;2023-04-08T12:06:34;6.57;;;6.00;;
13816;SDS011;6979;52.116;5.286;2023-04-08T12:09:01;6.87;;;6.27;;
13816;SDS011;6979;52.116;5.286;2023-04-08T12:11:28;6.77;;;6.20;;
13816;SDS011;6979;52.116;5.286;2023-04-08T12:13:56;6.47;;;5.97;;
13816;SDS011;6979;52.116;5.286;2023-04-08T12:16:23;6.70;;;6.10;;
13816;SDS011;6979;52.116;5.286;2023-04-08T12:18:50;6.97;;;6.37;;
13816;SDS011;6979;52.116;5.286;2023-04-08T12:21:17;7.53;;;6.83;;
13816;SDS011;6979;52.116;5.286;2023-04-08T12:23:44;7.10;;;6.60;;
13816;SDS011;6979;52.116;5.286;2023-04-08T12:26:11;6.37;;;5.90;;
13816;SDS011;6979;52.116;5.286;2023-04-08T12:28:38;6.80;;;6.20;;
13816;SDS011;6979;52.116;5.286;2023-04-08T12:31:06;7.07;;;6.60;;
13816;SDS011;6979;52.116;5.286;2023-04-08T12:33:33;7.57;;;6.97;;
13816;SDS011;6979;52.116;5.286;2023-04-08T12:36:01;6.83;;;6.33;;
13816;SDS011;6979;52.116;5.286;2023-04-08T12:38:28;7.57;;;7.00;;
13816;SDS011;6979;52.116;5.286;2023-04-08T12:40:55;6.30;;;5.70;;
13816;SDS011;6979;52.116;5.286;2023-04-08T12:43:22;6.17;;;5.77;;
13816;SDS011;6979;52.116;5.286;2023-04-08T12:45:49;6.13;;;5.73;;
13816;SDS011;6979;52.116;5.286;2023-04-08T12:48:18;7.47;;;6.97;;
13816;SDS011;6979;52.116;5.286;2023-04-08T12:50:45;6.20;;;5.73;;
13816;SDS011;6979;52.116;5.286;2023-04-08T12:53:11;6.80;;;6.30;;
13816;SDS011;6979;52.116;5.286;2023-04-08T12:55:38;7.13;;;6.63;;
13816;SDS011;6979;52.116;5.286;2023-04-08T12:58:06;7.03;;;6.53;;
13816;SDS011;6979;52.116;5.286;2023-04-08T13:00:32;8.10;;;7.50;;
13816;SDS011;6979;52.116;5.286;2023-04-08T13:03:01;7.77;;;7.07;;
13816;SDS011;6979;52.116;5.286;2023-04-08T13:05:30;7.13;;;6.43;;
13816;SDS011;6979;52.116;5.286;2023-04-08T13:07:57;6.63;;;6.07;;
13816;SDS011;6979;52.116;5.286;2023-04-08T13:10:24;6.57;;;5.97;;
13816;SDS011;6979;52.116;5.286;2023-04-08T13:12:51;6.77;;;6.17;;
13816;SDS011;6979;52.116;5.286;2023-04-08T13:15:18;7.13;;;6.60;;
13816;SDS011;6979;52.116;5.286;2023-04-08T13:17:45;6.93;;;6.37;;
13816;SDS011;6979;52.116;5.286;2023-04-08T13:20:12;7.00;;;6.43;;
13816;SDS011;6979;52.116;5.286;2023-04-08T13:22:41;6.67;;;6.17;;
13816;SDS011;6979;52.116;5.286;2023-04-08T13:25:08;5.80;;;5.40;;
13816;SDS011;6979;52.116;5.286;2023-04-08T13:27:35;6.07;;;5.57;;
13816;SDS011;6979;52.116;5.286;2023-04-08T13:30:02;7.00;;;6.30;;
13816;SDS011;6979;52.116;5.286;2023-04-08T13:32:29;8.70;;;6.40;;
13816;SDS011;6979;52.116;5.286;2023-04-08T13:34:56;6.43;;;5.90;;
13816;SDS011;6979;52.116;5.286;2023-04-08T13:37:23;6.17;;;5.77;;
13816;SDS011;6979;52.116;5.286;2023-04-08T13:39:54;5.13;;;4.63;;
13816;SDS011;6979;52.116;5.286;2023-04-08T13:42:21;5.87;;;5.40;;
13816;SDS011;6979;52.116;5.286;2023-04-08T13:44:48;5.13;;;4.73;;
13816;SDS011;6979;52.116;5.286;2023-04-08T13:47:15;5.70;;;5.20;;
13816;SDS011;6979;52.116;5.286;2023-04-08T13:49:42;5.67;;;5.37;;
13816;SDS011;6979;52.116;5.286;2023-04-08T13:52:09;5.20;;;4.90;;
13816;SDS011;6979;52.116;5.286;2023-04-08T13:54:36;7.37;;;6.17;;
13816;SDS011;6979;52.116;5.286;2023-04-08T13:57:04;6.43;;;5.93;;
13816;SDS011;6979;52.116;5.286;2023-04-08T13:59:31;7.10;;;6.60;;
13816;SDS011;6979;52.116;5.286;2023-04-08T14:01:58;6.50;;;6.00;;
13816;SDS011;6979;52.116;5.286;2023-04-08T14:04:24;5.80;;;5.40;;
13816;SDS011;6979;52.116;5.286;2023-04-08T14:06:53;5.67;;;5.27;;
13816;SDS011;6979;52.116;5.286;2023-04-08T14:09:23;4.97;;;4.67;;
13816;SDS011;6979;52.116;5.286;2023-04-08T14:11:52;5.43;;;5.07;;
13816;SDS011;6979;52.116;5.286;2023-04-08T14:14:24;5.50;;;5.10;;
13816;SDS011;6979;52.116;5.286;2023-04-08T14:16:51;6.60;;;6.20;;
13816;SDS011;6979;52.116;5.286;2023-04-08T14:19:18;6.17;;;5.77;;
13816;SDS011;6979;52.116;5.286;2023-04-08T14:21:45;6.33;;;5.93;;
13816;SDS011;6979;52.116;5.286;2023-04-08T14:24:12;7.13;;;6.60;;
13816;SDS011;6979;52.116;5.286;2023-04-08T14:26:39;6.33;;;5.93;;
13816;SDS011;6979;52.116;5.286;2023-04-08T14:29:06;6.70;;;6.10;;
13816;SDS011;6979;52.116;5.286;2023-04-08T14:31:37;6.83;;;6.33;;
13816;SDS011;6979;52.116;5.286;2023-04-08T14:34:04;6.43;;;5.97;;
13816;SDS011;6979;52.116;5.286;2023-04-08T14:36:31;5.90;;;5.50;;
13816;SDS011;6979;52.116;5.286;2023-04-08T14:38:58;6.37;;;5.87;;
13816;SDS011;6979;52.116;5.286;2023-04-08T14:41:25;6.73;;;6.23;;
13816;SDS011;6979;52.116;5.286;2023-04-08T14:43:53;5.80;;;5.40;;
13816;SDS011;6979;52.116;5.286;2023-04-08T14:46:20;6.30;;;5.87;;
13816;SDS011;6979;52.116;5.286;2023-04-08T14:48:50;6.20;;;5.80;;
13816;SDS011;6979;52.116;5.286;2023-04-08T14:51:17;6.60;;;6.10;;
13816;SDS011;6979;52.116;5.286;2023-04-08T14:53:44;7.33;;;6.83;;
13816;SDS011;6979;52.116;5.286;2023-04-08T14:56:11;6.17;;;5.70;;
13816;SDS011;6979;52.116;5.286;2023-04-08T14:58:38;6.97;;;6.43;;
13816;SDS011;6979;52.116;5.286;2023-04-08T15:01:06;6.00;;;5.50;;
13816;SDS011;6979;52.116;5.286;2023-04-08T15:03:33;6.70;;;6.20;;
13816;SDS011;6979;52.116;5.286;2023-04-08T15:06:01;7.50;;;6.90;;
13816;SDS011;6979;52.116;5.286;2023-04-08T15:08:30;6.93;;;6.43;;
13816;SDS011;6979;52.116;5.286;2023-04-08T15:10:59;6.77;;;6.27;;
13816;SDS011;6979;52.116;5.286;2023-04-08T15:13:26;5.90;;;5.50;;